59TA weather

Kaneb Heliport
Sugar Land, Texas, United States

Public forecast

Using degrees Fahrenheit for public forecast. Weather courtesy of forecast.io.

METAR (pilot weather report)

Closest report is Sugar Land Regional Airport, 2.8 nm (5.1 km) W. Retrieved 2019/07/19 15:53 UTC (18 minutes ago):

KSGR 191553Z 16012KT 10SM FEW031 BKN042 32/24 A3003 RMK AO2 SLP169 T03220244

TAF (pilot weather forecast)

Closest forecast is Sugar Land Regional Airport, 2.8 nm (5.1 km) W. Retrieved 2019/07/19 12:22 UTC (4 hours ago):

TAF KSGR 191120Z 1912/2012 16004KT P6SM FEW020 FM191700 17007KT P6SM SCT040 FM192000 16010KT P6SM FEW045 FM200400 16006KT P6SM FEW020